Time;durP1;ratioP1;P1;durP2;ratioP2;P2;SDS_P1;SDS_P2;PMS_P1;PMS_P2;Temp;Humidity;BMP_temperature;BMP_pressure;BME280_temperature;BME280_humidity;BME280_pressure;Samples;Min_cycle;Max_cycle;Signal;HPM_P1;HPM_P2
2021/10/25 00:00:02;;;;;;;15.83;14.10;;;2.50;99.90;;;;;;4989519;28;20385;-84
2021/10/25 00:02:27;;;;;;;16.88;14.57;;;2.50;99.90;;;;;;4989721;28;20384;-82
2021/10/25 00:04:53;;;;;;;15.50;13.47;;;2.40;99.90;;;;;;4989621;28;20384;-82
2021/10/25 00:07:18;;;;;;;17.67;14.03;;;2.40;99.90;;;;;;4988202;28;20405;-84
2021/10/25 00:09:44;;;;;;;15.50;12.83;;;2.40;99.90;;;;;;4988922;28;20436;-84
2021/10/25 00:12:10;;;;;;;17.88;13.75;;;2.40;99.90;;;;;;4988430;28;20392;-81
2021/10/25 00:14:36;;;;;;;17.73;13.52;;;2.30;99.90;;;;;;4989449;28;20472;-82
2021/10/25 00:17:02;;;;;;;16.97;13.87;;;2.30;99.90;;;;;;4989231;28;20530;-82
2021/10/25 00:19:27;;;;;;;17.27;13.88;;;2.30;99.90;;;;;;4989322;28;20531;-82
2021/10/25 00:21:53;;;;;;;17.38;13.55;;;2.30;99.90;;;;;;4988129;28;20385;-82
2021/10/25 00:24:19;;;;;;;15.65;13.95;;;2.20;99.90;;;;;;4987172;28;20412;-83
2021/10/25 00:26:45;;;;;;;17.52;13.05;;;2.20;99.90;;;;;;4989630;28;20404;-82
2021/10/25 00:29:10;;;;;;;16.73;14.18;;;2.20;99.90;;;;;;4989297;28;20793;-83
2021/10/25 00:31:36;;;;;;;15.55;13.32;;;2.10;99.90;;;;;;4989912;28;20385;-84
2021/10/25 00:34:02;;;;;;;16.17;13.57;;;2.10;99.90;;;;;;4988191;28;20368;-84
2021/10/25 00:36:27;;;;;;;16.50;14.00;;;2.10;99.90;;;;;;4983059;28;20435;-83
2021/10/25 00:38:53;;;;;;;16.43;14.27;;;2.10;99.90;;;;;;4988598;28;20393;-83
2021/10/25 00:41:18;;;;;;;15.50;12.90;;;2.00;99.90;;;;;;4988887;28;20899;-83
2021/10/25 00:43:44;;;;;;;18.47;14.47;;;2.00;99.90;;;;;;4989135;28;20509;-82
2021/10/25 00:46:10;;;;;;;16.67;13.73;;;1.90;99.90;;;;;;4988403;28;20451;-82
2021/10/25 00:48:37;;;;;;;15.50;13.32;;;1.90;99.90;;;;;;4989114;28;20441;-84
2021/10/25 00:51:06;;;;;;;18.25;13.82;;;1.90;99.90;;;;;;4988865;28;20403;-84
2021/10/25 00:53:32;;;;;;;19.10;14.23;;;1.90;99.90;;;;;;4988822;28;20401;-83
2021/10/25 00:56:00;;;;;;;16.40;14.65;;;1.80;99.90;;;;;;4987275;28;20417;-82
2021/10/25 00:58:25;;;;;;;16.90;14.25;;;1.80;99.90;;;;;;4988929;28;20377;-82
2021/10/25 01:00:51;;;;;;;15.85;13.50;;;1.80;99.90;;;;;;4988948;28;20759;-83
2021/10/25 01:03:17;;;;;;;18.17;14.98;;;1.80;99.90;;;;;;4987459;28;20380;-82
2021/10/25 01:05:43;;;;;;;19.13;13.23;;;1.70;99.90;;;;;;4987490;28;20440;-83
2021/10/25 01:08:08;;;;;;;15.80;14.10;;;1.70;99.90;;;;;;4987801;28;20424;-82
2021/10/25 01:10:34;;;;;;;15.93;14.23;;;1.60;99.90;;;;;;4988912;28;20400;-82
2021/10/25 01:13:01;;;;;;;19.77;14.90;;;1.60;99.90;;;;;;4987619;28;20389;-84
2021/10/25 01:15:27;;;;;;;16.00;13.30;;;1.60;99.90;;;;;;4989062;28;20415;-84
2021/10/25 01:17:57;;;;;;;17.15;14.18;;;1.60;99.90;;;;;;4987577;28;20389;-84
2021/10/25 01:20:25;;;;;;;17.45;14.35;;;1.50;99.90;;;;;;4988206;28;20451;-82
2021/10/25 01:22:52;;;;;;;19.33;14.75;;;1.40;99.90;;;;;;4987580;28;20476;-81
2021/10/25 01:25:18;;;;;;;16.70;14.88;;;1.50;99.90;;;;;;4987449;28;20416;-83
2021/10/25 01:27:43;;;;;;;16.95;14.27;;;1.50;99.90;;;;;;4987059;28;20550;-83
2021/10/25 01:30:10;;;;;;;18.50;15.23;;;1.40;99.90;;;;;;4987162;28;20862;-82
2021/10/25 01:32:35;;;;;;;16.35;14.10;;;1.50;99.90;;;;;;4988762;28;20380;-84
2021/10/25 01:35:01;;;;;;;16.30;14.60;;;1.50;99.90;;;;;;4988994;28;20377;-83
2021/10/25 01:37:27;;;;;;;19.27;15.17;;;1.50;99.90;;;;;;4985737;28;20393;-82
2021/10/25 01:39:52;;;;;;;17.03;14.53;;;1.40;99.90;;;;;;4992028;28;20450;-86
2021/10/25 01:42:18;;;;;;;16.93;14.60;;;1.40;99.90;;;;;;4991829;28;20913;-84
2021/10/25 01:44:44;;;;;;;17.27;14.70;;;1.40;99.90;;;;;;4991845;28;20385;-81
2021/10/25 01:47:10;;;;;;;17.27;14.90;;;1.40;99.90;;;;;;4991558;28;20524;-82
2021/10/25 01:49:35;;;;;;;19.07;15.00;;;1.40;99.90;;;;;;4992778;28;20385;-82
2021/10/25 01:52:01;;;;;;;19.10;14.70;;;1.40;99.90;;;;;;4993188;28;20389;-82
2021/10/25 01:54:27;;;;;;;18.77;14.70;;;1.40;99.90;;;;;;4991884;28;20392;-82
2021/10/25 01:56:52;;;;;;;16.83;14.87;;;1.40;99.90;;;;;;4992839;28;20445;-84
2021/10/25 01:59:19;;;;;;;16.80;14.90;;;1.30;99.90;;;;;;4992499;28;20385;-83
2021/10/25 02:01:45;;;;;;;18.85;14.45;;;1.20;99.90;;;;;;4992964;28;20387;-83
2021/10/25 02:04:11;;;;;;;19.42;14.70;;;1.20;99.90;;;;;;4992599;28;20392;-81
2021/10/25 02:06:36;;;;;;;17.17;14.93;;;1.20;99.90;;;;;;4990806;28;20771;-82
2021/10/25 02:09:03;;;;;;;17.02;14.18;;;1.20;99.90;;;;;;4992776;28;20448;-83
2021/10/25 02:11:29;;;;;;;16.40;14.18;;;1.20;99.90;;;;;;4990583;28;20969;-83
2021/10/25 02:13:55;;;;;;;17.93;14.33;;;1.10;99.90;;;;;;4992339;28;20389;-83
2021/10/25 02:16:21;;;;;;;16.63;14.50;;;1.10;99.90;;;;;;4992111;28;20397;-83
2021/10/25 02:18:46;;;;;;;16.47;14.10;;;1.10;99.90;;;;;;4985107;28;20495;-83
2021/10/25 02:21:13;;;;;;;17.40;15.20;;;1.10;99.90;;;;;;4992465;28;20480;-83
2021/10/25 02:23:38;;;;;;;20.08;16.25;;;1.00;99.90;;;;;;4992087;28;20912;-85
2021/10/25 02:26:04;;;;;;;18.77;14.60;;;1.00;99.90;;;;;;4992120;28;21006;-82
2021/10/25 02:28:31;;;;;;;21.08;16.38;;;1.00;99.90;;;;;;4992650;28;20930;-82
2021/10/25 02:30:57;;;;;;;17.25;14.38;;;1.00;99.90;;;;;;4992827;28;20389;-83
2021/10/25 02:33:23;;;;;;;19.15;15.45;;;1.00;99.90;;;;;;4992969;28;20393;-84
2021/10/25 02:35:50;;;;;;;18.10;15.40;;;1.00;99.90;;;;;;4992637;28;20769;-81
2021/10/25 02:38:17;;;;;;;18.48;15.38;;;1.00;99.90;;;;;;4992785;28;20859;-82
2021/10/25 02:40:44;;;;;;;20.10;16.00;;;1.00;99.90;;;;;;4991494;28;20401;-83
2021/10/25 02:43:09;;;;;;;19.77;17.15;;;1.20;99.90;;;;;;4992654;28;20755;-82
2021/10/25 02:45:35;;;;;;;19.20;15.67;;;1.20;99.90;;;;;;4990258;28;20393;-83
2021/10/25 02:48:02;;;;;;;21.63;16.38;;;1.20;99.90;;;;;;4973330;28;20785;-85
2021/10/25 02:50:28;;;;;;;18.00;15.35;;;1.30;99.90;;;;;;4989427;28;20755;-82
2021/10/25 02:52:53;;;;;;;18.23;15.73;;;1.20;99.90;;;;;;4992453;28;20387;-85
2021/10/25 02:55:19;;;;;;;17.23;15.10;;;1.10;99.90;;;;;;4990555;28;20400;-84
2021/10/25 02:57:45;;;;;;;19.65;15.27;;;1.10;99.90;;;;;;4992228;28;20829;-81
2021/10/25 03:00:13;;;;;;;19.27;16.07;;;1.00;99.90;;;;;;4991952;28;20480;-84
2021/10/25 03:02:39;;;;;;;16.63;14.82;;;1.00;99.90;;;;;;4990720;28;20476;-82
2021/10/25 03:05:06;;;;;;;19.13;14.85;;;0.90;99.90;;;;;;4990570;28;20391;-82
2021/10/25 03:07:32;;;;;;;17.92;14.60;;;0.90;99.90;;;;;;4991499;28;20405;-84
2021/10/25 03:09:58;;;;;;;19.98;15.20;;;0.80;99.90;;;;;;4991798;28;20413;-84
2021/10/25 03:12:24;;;;;;;16.75;14.35;;;0.80;99.90;;;;;;4989752;28;20397;-84
2021/10/25 03:14:50;;;;;;;19.40;14.93;;;0.80;99.90;;;;;;4991922;28;20472;-81
2021/10/25 03:17:17;;;;;;;18.13;14.85;;;0.80;99.90;;;;;;4992190;28;20396;-84
2021/10/25 03:19:43;;;;;;;19.38;15.02;;;0.80;99.90;;;;;;4991242;28;20895;-81
2021/10/25 03:22:12;;;;;;;16.73;13.77;;;0.70;99.90;;;;;;4992253;28;20412;-85
2021/10/25 03:24:38;;;;;;;17.73;14.93;;;0.70;99.90;;;;;;4991011;28;20875;-82
2021/10/25 03:27:04;;;;;;;18.58;14.80;;;0.70;99.90;;;;;;4991254;28;20412;-82
2021/10/25 03:29:29;;;;;;;17.13;13.87;;;0.60;99.90;;;;;;4992814;28;20430;-81
2021/10/25 03:31:55;;;;;;;17.50;14.87;;;0.60;99.90;;;;;;4993201;28;20747;-81
2021/10/25 03:34:21;;;;;;;16.60;14.13;;;0.60;99.90;;;;;;4993104;28;20467;-81
2021/10/25 03:36:49;;;;;;;17.37;15.20;;;0.60;99.90;;;;;;4993328;28;20400;-83
2021/10/25 03:39:18;;;;;;;15.65;13.88;;;0.60;99.90;;;;;;4994267;28;20724;-83
2021/10/25 03:41:47;;;;;;;17.23;14.50;;;0.50;99.90;;;;;;4992590;28;20890;-82
2021/10/25 03:44:20;;;;;;;17.65;14.32;;;0.50;99.90;;;;;;4995774;28;20393;-82
2021/10/25 03:46:58;;;;;;;17.23;14.25;;;0.50;99.90;;;;;;4994948;28;20431;-81
2021/10/25 03:49:44;;;;;;;18.67;14.60;;;0.50;99.90;;;;;;4995659;28;20543;-81
2021/10/25 03:52:55;;;;;;;16.27;13.25;;;0.40;99.90;;;;;;4995895;28;20385;-82
2021/10/25 03:55:07;;;;;;;17.10;14.20;;;0.40;99.90;;;;;;4994467;28;20393;-84
2021/10/25 04:00:44;;;;;;;16.55;13.80;;;0.40;99.90;;;;;;4976267;28;20397;-82
2021/10/25 04:27:57;;;;;;;20.13;17.35;;;0.40;99.90;;;;;;4993461;28;20413;-82
2021/10/25 04:30:22;;;;;;;20.00;16.17;;;0.50;99.90;;;;;;4993612;28;20468;-84
2021/10/25 04:32:48;;;;;;;18.43;16.17;;;0.30;99.90;;;;;;4991879;28;20400;-83
2021/10/25 04:35:14;;;;;;;18.57;14.67;;;0.30;99.90;;;;;;4995181;28;20743;-82
2021/10/25 04:37:41;;;;;;;17.80;15.05;;;0.20;99.90;;;;;;4995275;28;20384;-84
2021/10/25 04:40:08;;;;;;;16.23;13.35;;;0.30;99.90;;;;;;4992521;28;20420;-82
2021/10/25 04:42:34;;;;;;;17.05;14.82;;;0.30;99.90;;;;;;4990718;28;20401;-83
2021/10/25 04:45:00;;;;;;;15.35;13.75;;;0.20;99.90;;;;;;4988557;28;20396;-84
2021/10/25 04:47:27;;;;;;;16.10;14.03;;;0.20;99.90;;;;;;4988338;28;20408;-82
2021/10/25 04:49:53;;;;;;;19.25;14.60;;;0.20;99.90;;;;;;4989895;28;20430;-85
2021/10/25 04:52:19;;;;;;;17.52;14.00;;;0.20;99.90;;;;;;4989510;28;20377;-83
2021/10/25 04:54:44;;;;;;;16.55;14.50;;;0.10;99.90;;;;;;4989045;28;20389;-82
2021/10/25 04:57:10;;;;;;;17.92;14.00;;;0.20;99.90;;;;;;4988866;28;20405;-84
2021/10/25 04:59:36;;;;;;;16.13;14.32;;;0.10;99.90;;;;;;4989912;28;20377;-84
2021/10/25 05:02:02;;;;;;;14.88;13.00;;;0.10;99.90;;;;;;4988141;28;20755;-82
2021/10/25 05:04:28;;;;;;;15.40;13.40;;;0.10;99.90;;;;;;4989160;28;20377;-82
2021/10/25 05:06:53;;;;;;;16.75;14.27;;;0.10;99.90;;;;;;4989058;28;20697;-83
2021/10/25 05:09:19;;;;;;;17.15;13.95;;;0.10;99.90;;;;;;4988687;28;20396;-82
2021/10/25 05:11:45;;;;;;;15.90;13.20;;;0.10;99.90;;;;;;4989095;28;20443;-84
2021/10/25 05:14:10;;;;;;;18.23;15.07;;;0.00;99.90;;;;;;4990822;28;20393;-84
2021/10/25 05:16:36;;;;;;;16.43;13.37;;;0.00;99.90;;;;;;4991351;28;20392;-81
2021/10/25 05:19:02;;;;;;;17.70;14.57;;;0.10;99.90;;;;;;4992987;28;20870;-83
2021/10/25 05:21:27;;;;;;;20.63;15.13;;;0.10;99.90;;;;;;4992533;28;20373;-86
2021/10/25 05:23:53;;;;;;;18.00;14.30;;;0.00;99.90;;;;;;4991898;28;20798;-83
2021/10/25 05:26:20;;;;;;;18.60;14.05;;;0.00;99.90;;;;;;4992558;28;20471;-83
2021/10/25 05:28:46;;;;;;;15.80;14.00;;;0.00;99.90;;;;;;4990357;28;20416;-83
2021/10/25 05:31:11;;;;;;;16.77;14.97;;;0.10;99.90;;;;;;4992281;28;20385;-83
2021/10/25 05:33:39;;;;;;;17.23;14.43;;;0.00;99.90;;;;;;4992096;28;20385;-82
2021/10/25 05:36:06;;;;;;;20.98;14.95;;;0.00;99.90;;;;;;4991197;28;20393;-83
2021/10/25 05:38:32;;;;;;;16.38;14.00;;;0.00;99.90;;;;;;4990546;28;20423;-81
2021/10/25 05:40:58;;;;;;;17.67;14.50;;;0.00;99.90;;;;;;4991222;28;20416;-85
2021/10/25 05:43:24;;;;;;;16.42;14.60;;;0.00;99.90;;;;;;4971282;28;20449;-84
2021/10/25 05:45:50;;;;;;;17.08;14.65;;;0.00;99.90;;;;;;4991119;28;20401;-85
2021/10/25 05:48:15;;;;;;;18.67;15.30;;;0.10;99.90;;;;;;4991858;28;20483;-85
2021/10/25 05:50:43;;;;;;;15.43;13.50;;;0.10;99.90;;;;;;4990702;28;20436;-85
2021/10/25 05:53:09;;;;;;;16.95;14.27;;;0.10;99.90;;;;;;4990088;28;20385;-83
2021/10/25 05:55:37;;;;;;;16.50;14.80;;;0.30;99.90;;;;;;4990292;28;20887;-86
2021/10/25 05:58:05;;;;;;;18.75;15.05;;;0.40;99.90;;;;;;4989669;28;20384;-85
2021/10/25 06:00:35;;;;;;;18.35;15.65;;;0.40;99.90;;;;;;4991561;28;20445;-82
2021/10/25 06:03:01;;;;;;;17.17;15.02;;;0.40;99.90;;;;;;4992227;28;20385;-82
2021/10/25 06:05:30;;;;;;;18.05;15.90;;;0.30;99.90;;;;;;4990718;28;20613;-84
2021/10/25 06:07:56;;;;;;;23.13;20.70;;;0.30;99.90;;;;;;4990868;28;20423;-84
2021/10/25 06:10:32;;;;;;;21.45;19.15;;;0.30;99.90;;;;;;4990668;28;20758;-82
2021/10/25 06:13:04;;;;;;;19.23;17.15;;;0.20;99.90;;;;;;4993030;28;20420;-82
2021/10/25 06:15:37;;;;;;;17.52;15.02;;;0.30;99.90;;;;;;4991100;28;20851;-83
2021/10/25 06:18:05;;;;;;;17.42;14.85;;;0.30;99.90;;;;;;4991420;28;20468;-83
2021/10/25 06:20:31;;;;;;;19.92;15.13;;;0.30;99.90;;;;;;4990193;28;20397;-83
2021/10/25 06:22:57;;;;;;;15.50;13.88;;;0.30;99.90;;;;;;4991506;28;20396;-83
2021/10/25 06:25:23;;;;;;;18.30;15.68;;;0.30;99.90;;;;;;4989998;28;20393;-82
2021/10/25 06:27:52;;;;;;;16.35;14.52;;;0.40;99.90;;;;;;4991636;28;20415;-84
2021/10/25 06:30:19;;;;;;;15.88;14.25;;;0.40;99.90;;;;;;4992178;28;20385;-82
2021/10/25 06:32:45;;;;;;;15.27;13.68;;;0.50;99.90;;;;;;4993985;28;20889;-85
2021/10/25 06:35:14;;;;;;;16.15;14.38;;;0.50;99.90;;;;;;4994511;28;20373;-84
2021/10/25 06:37:54;;;;;;;22.27;19.88;;;0.60;99.90;;;;;;4993780;28;20388;-83
2021/10/25 06:40:21;;;;;;;31.38;28.38;;;0.70;99.90;;;;;;4992170;28;20879;-83
2021/10/25 06:42:50;;;;;;;29.50;26.50;;;0.70;99.90;;;;;;4993394;28;20400;-82
2021/10/25 06:45:19;;;;;;;25.05;22.40;;;0.80;99.90;;;;;;4993576;28;21185;-84
2021/10/25 06:47:45;;;;;;;19.33;16.83;;;0.90;99.90;;;;;;4993803;28;20416;-83
2021/10/25 06:50:12;;;;;;;33.65;30.02;;;0.90;99.90;;;;;;4991154;28;20423;-82
2021/10/25 06:52:37;;;;;;;61.58;53.42;;;1.00;99.90;;;;;;4990064;28;20460;-82
2021/10/25 06:55:05;;;;;;;64.40;57.37;;;1.10;99.90;;;;;;4991054;28;20562;-82
2021/10/25 06:57:30;;;;;;;60.80;54.30;;;1.20;99.90;;;;;;4977181;28;20467;-81
2021/10/25 06:59:56;;;;;;;67.27;59.97;;;1.20;99.90;;;;;;4989050;28;21228;-81
2021/10/25 07:02:22;;;;;;;62.13;55.23;;;1.40;99.90;;;;;;4987299;28;20728;-82
2021/10/25 07:04:48;;;;;;;43.10;38.55;;;1.50;99.90;;;;;;4987707;28;20408;-83
2021/10/25 07:07:16;;;;;;;33.83;30.25;;;1.60;99.90;;;;;;4983853;28;20428;-82
2021/10/25 07:09:42;;;;;;;32.22;28.45;;;1.70;99.90;;;;;;4986106;28;20369;-82
2021/10/25 07:12:08;;;;;;;19.98;17.98;;;1.90;99.90;;;;;;4985224;28;20475;-81
2021/10/25 07:14:36;;;;;;;19.80;17.50;;;2.10;99.90;;;;;;4985583;28;20395;-82
2021/10/25 08:11:04;;;;;;;15.48;11.30;;;5.70;99.90;;;;;;4986601;28;20393;-82
2021/10/25 08:13:40;;;;;;;13.95;10.95;;;5.80;99.90;;;;;;4985003;28;20472;-83
2021/10/25 08:21:11;;;;;;;14.82;11.25;;;5.80;99.90;;;;;;4986034;28;20396;-82
2021/10/25 08:23:38;;;;;;;14.83;10.53;;;6.00;99.90;;;;;;4985410;28;20396;-82
2021/10/25 08:26:05;;;;;;;14.15;11.25;;;6.10;99.90;;;;;;4983569;28;20475;-83
2021/10/25 08:28:30;;;;;;;13.83;10.37;;;6.30;99.90;;;;;;4985310;28;21054;-84
2021/10/25 08:30:58;;;;;;;14.13;10.80;;;6.50;99.90;;;;;;4984946;28;20413;-81
2021/10/25 08:41:23;;;;;;;14.30;9.90;;;7.60;99.90;;;;;;4985873;28;20396;-82
2021/10/25 08:43:51;;;;;;;13.02;9.15;;;7.70;99.90;;;;;;4985459;28;20432;-82
2021/10/25 08:46:19;;;;;;;13.15;10.07;;;7.90;99.90;;;;;;4983870;28;20411;-82
2021/10/25 08:48:46;;;;;;;13.68;10.15;;;8.00;99.90;;;;;;4988630;28;20870;-81
2021/10/25 08:51:13;;;;;;;14.75;9.75;;;8.00;99.90;;;;;;4988556;28;20446;-82
2021/10/25 08:53:39;;;;;;;12.88;9.73;;;7.90;99.90;;;;;;4987891;28;20516;-82
2021/10/25 08:56:05;;;;;;;13.80;10.07;;;7.90;99.90;;;;;;4986397;28;20475;-81
2021/10/25 08:58:35;;;;;;;12.18;9.38;;;7.90;99.90;;;;;;4988886;28;20876;-82
2021/10/25 09:01:01;;;;;;;12.15;9.18;;;8.10;99.90;;;;;;4986884;28;20384;-82
2021/10/25 09:03:27;;;;;;;14.30;8.80;;;8.20;99.90;;;;;;4986399;28;20402;-82
2021/10/25 09:05:58;;;;;;;12.30;8.80;;;8.30;99.90;;;;;;4989959;28;20420;-83
2021/10/25 09:08:25;;;;;;;11.55;8.73;;;8.50;99.90;;;;;;4989151;28;20435;-82
2021/10/25 09:10:51;;;;;;;12.18;9.32;;;8.70;99.90;;;;;;4986446;28;20404;-83
2021/10/25 09:13:18;;;;;;;12.20;8.63;;;9.00;99.90;;;;;;4988123;28;20393;-83
2021/10/25 09:15:55;;;;;;;11.40;9.00;;;9.10;99.90;;;;;;4987876;28;20491;-83
2021/10/25 09:18:24;;;;;;;12.52;8.52;;;9.20;99.90;;;;;;4988706;28;20913;-83
2021/10/25 09:21:02;;;;;;;12.52;8.98;;;9.30;99.90;;;;;;4988206;28;20392;-83
2021/10/25 09:23:42;;;;;;;11.33;8.80;;;9.50;99.90;;;;;;4988777;28;20424;-82
2021/10/25 09:26:20;;;;;;;11.43;8.25;;;9.70;99.90;;;;;;4988400;28;20397;-83
2021/10/25 09:28:56;;;;;;;11.52;8.43;;;10.00;99.90;;;;;;4987266;28;21072;-82
2021/10/25 09:31:27;;;;;;;12.52;8.57;;;10.00;99.90;;;;;;4989498;28;20732;-82
2021/10/25 09:33:57;;;;;;;10.90;8.25;;;9.90;99.90;;;;;;4985471;28;21068;-83
2021/10/25 09:36:45;;;;;;;11.77;8.20;;;10.10;99.90;;;;;;4987285;28;20397;-83
2021/10/25 09:39:21;;;;;;;11.90;8.07;;;9.90;99.90;;;;;;4987120;28;20389;-83
2021/10/25 09:41:59;;;;;;;12.02;7.88;;;9.90;99.90;;;;;;4987098;28;20463;-82
2021/10/25 09:50:02;;;;;;;11.10;7.53;;;10.70;99.90;;;;;;4987157;28;20863;-83
2021/10/25 09:52:30;;;;;;;11.77;7.17;;;10.70;99.90;;;;;;4987771;28;20404;-84
2021/10/25 09:55:02;;;;;;;12.07;7.00;;;10.80;99.90;;;;;;4987266;28;20420;-83
2021/10/25 09:57:39;;;;;;;11.68;7.10;;;10.90;99.90;;;;;;4985268;28;20397;-83
2021/10/25 10:00:07;;;;;;;8.45;6.75;;;11.00;99.90;;;;;;4987349;28;20393;-83
2021/10/25 10:02:34;;;;;;;9.52;6.88;;;11.10;99.90;;;;;;4988361;28;20727;-82
2021/10/25 10:05:01;;;;;;;11.30;6.88;;;11.00;99.90;;;;;;4983938;28;20492;-82
2021/10/25 10:07:27;;;;;;;10.48;7.50;;;10.90;99.90;;;;;;4985495;28;20421;-82
2021/10/25 10:09:54;;;;;;;11.25;7.20;;;10.90;99.90;;;;;;4983403;28;20922;-83
2021/10/25 10:12:23;;;;;;;10.00;7.50;;;10.90;99.90;;;;;;4983933;28;20483;-83
2021/10/25 10:14:51;;;;;;;9.57;6.88;;;10.90;99.90;;;;;;4987629;28;20405;-84
2021/10/25 10:17:30;;;;;;;11.32;7.40;;;11.10;99.90;;;;;;4988112;28;20400;-82
2021/10/25 10:20:04;;;;;;;8.00;6.47;;;11.20;99.90;;;;;;4988427;28;20447;-83
2021/10/25 10:22:33;;;;;;;11.98;7.22;;;11.30;99.90;;;;;;4988435;28;20400;-85
2021/10/25 10:24:58;;;;;;;10.68;7.55;;;11.50;99.90;;;;;;4988107;28;21728;-83
2021/10/25 10:27:24;;;;;;;10.07;7.10;;;11.70;99.90;;;;;;4986797;28;20413;-85
2021/10/25 10:29:59;;;;;;;12.43;7.73;;;11.80;99.90;;;;;;4987383;28;20425;-84
2021/10/25 10:32:31;;;;;;;10.10;7.18;;;12.10;99.90;;;;;;4988006;28;20464;-84
2021/10/25 10:35:03;;;;;;;12.25;7.22;;;12.30;99.90;;;;;;4989107;28;20464;-83
2021/10/25 10:37:32;;;;;;;10.38;6.75;;;12.40;99.90;;;;;;4987790;28;20400;-85
2021/10/25 10:40:13;;;;;;;8.88;7.32;;;12.60;99.90;;;;;;4985839;28;20397;-83
2021/10/25 10:42:43;;;;;;;10.33;7.60;;;12.50;99.90;;;;;;4987496;28;20463;-83
2021/10/25 10:45:12;;;;;;;9.40;7.22;;;12.70;99.90;;;;;;4988506;28;20381;-84
2021/10/25 10:50:05;;;;;;;10.68;7.75;;;12.90;99.90;;;;;;4988615;28;20380;-83
2021/10/25 10:55:26;;;;;;;9.98;7.40;;;13.10;99.90;;;;;;4988739;28;20441;-85
2021/10/25 11:00:46;;;;;;;11.55;7.20;;;12.80;99.90;;;;;;4990143;28;20404;-84
2021/10/25 11:03:16;;;;;;;10.30;6.70;;;12.60;99.90;;;;;;4988599;28;20416;-83
2021/10/25 11:05:43;;;;;;;10.15;6.93;;;12.70;99.90;;;;;;4986851;28;20443;-83
2021/10/25 11:08:11;;;;;;;12.00;7.70;;;12.80;99.90;;;;;;4985995;28;20763;-84
2021/10/25 11:10:38;;;;;;;9.15;7.07;;;12.80;99.90;;;;;;4983777;28;20447;-83
2021/10/25 11:13:29;;;;;;;10.82;6.82;;;12.70;99.90;;;;;;4986550;28;20485;-83
2021/10/25 11:16:55;;;;;;;11.82;7.40;;;12.70;99.90;;;;;;4986656;28;20439;-83
2021/10/25 11:18:48;;;;;;;10.10;6.90;;;12.90;99.90;;;;;;4981732;28;20397;-83
2021/10/25 11:21:19;;;;;;;11.73;7.43;;;13.10;99.90;;;;;;4987982;28;21001;-83
2021/10/25 11:24:09;;;;;;;11.90;6.87;;;13.20;99.90;;;;;;4983752;28;20483;-85
2021/10/25 11:26:42;;;;;;;14.68;6.90;;;13.10;99.90;;;;;;4981340;28;20419;-82
2021/10/25 11:29:21;;;;;;;9.48;6.85;;;13.10;99.90;;;;;;4987333;28;20404;-85
2021/10/25 11:31:48;;;;;;;11.85;7.38;;;13.20;99.90;;;;;;4987674;28;20447;-83
2021/10/25 11:34:20;;;;;;;10.93;7.05;;;13.30;99.90;;;;;;4986327;28;20496;-82
2021/10/25 11:37:03;;;;;;;9.15;6.28;;;13.30;99.90;;;;;;4987392;28;20405;-83
2021/10/25 11:39:40;;;;;;;9.85;6.68;;;13.40;99.90;;;;;;4988285;28;20406;-82
2021/10/25 11:42:10;;;;;;;9.15;6.63;;;13.40;99.90;;;;;;4987111;28;20471;-83
2021/10/25 11:44:37;;;;;;;10.32;6.32;;;13.60;99.90;;;;;;4987927;28;20396;-83
2021/10/25 11:47:03;;;;;;;11.13;6.65;;;13.70;99.90;;;;;;4983416;28;20423;-83
2021/10/25 11:49:35;;;;;;;10.07;5.97;;;13.90;99.90;;;;;;4986171;28;20388;-82
2021/10/25 11:52:01;;;;;;;9.73;6.28;;;14.00;99.90;;;;;;4982372;28;20473;-82
2021/10/25 11:54:27;;;;;;;9.97;6.63;;;14.10;99.90;;;;;;4971464;28;20530;-84
2021/10/25 11:56:54;;;;;;;8.82;6.18;;;14.10;99.90;;;;;;4974955;28;20405;-81
2021/10/25 11:59:21;;;;;;;8.35;6.50;;;14.00;99.90;;;;;;4989710;28;20381;-81
2021/10/25 12:01:48;;;;;;;9.70;6.32;;;13.80;99.90;;;;;;4987629;28;20408;-82
2021/10/25 12:04:14;;;;;;;7.22;6.13;;;13.80;99.90;;;;;;4988647;28;20435;-82
2021/10/25 12:06:40;;;;;;;10.60;6.55;;;13.80;99.90;;;;;;4987140;28;20392;-83
2021/10/25 12:09:09;;;;;;;9.55;6.25;;;13.80;99.90;;;;;;4989385;28;20486;-83
2021/10/25 12:14:25;;;;;;;10.38;6.55;;;13.70;99.90;;;;;;4988696;28;20885;-82
2021/10/25 12:16:51;;;;;;;9.00;6.20;;;13.70;99.90;;;;;;4988637;28;21236;-82
2021/10/25 12:19:17;;;;;;;8.57;6.13;;;13.70;99.90;;;;;;4987286;28;20416;-84
2021/10/25 12:21:44;;;;;;;9.18;6.13;;;13.60;99.90;;;;;;4985063;28;20908;-83
2021/10/25 12:24:11;;;;;;;8.80;6.10;;;13.60;99.90;;;;;;4988964;28;20858;-83
2021/10/25 12:26:41;;;;;;;9.35;6.47;;;13.60;99.90;;;;;;4992366;28;20551;-82
2021/10/25 12:29:15;;;;;;;7.53;6.60;;;13.70;99.90;;;;;;4984287;28;20401;-82
2021/10/25 12:31:41;;;;;;;8.30;6.15;;;13.70;99.90;;;;;;4989434;28;20395;-83
2021/10/25 12:34:07;;;;;;;7.25;6.28;;;13.90;99.90;;;;;;4990328;28;20388;-83
2021/10/25 12:36:38;;;;;;;11.53;7.00;;;13.80;99.90;;;;;;4989480;28;20407;-83
2021/10/25 12:39:11;;;;;;;9.05;6.50;;;13.80;99.90;;;;;;4986086;28;20377;-83
2021/10/25 12:42:06;;;;;;;7.75;6.63;;;13.70;99.90;;;;;;4990476;28;20871;-83
2021/10/25 12:44:40;;;;;;;8.65;6.35;;;13.70;99.90;;;;;;4989666;28;20404;-82
2021/10/25 12:47:11;;;;;;;10.38;6.72;;;13.70;99.90;;;;;;4990022;28;20932;-82
2021/10/25 12:49:37;;;;;;;10.47;6.70;;;13.70;99.90;;;;;;4987810;28;20844;-83
2021/10/25 12:52:08;;;;;;;9.88;6.60;;;13.70;99.90;;;;;;4990639;28;20380;-85
2021/10/25 12:54:36;;;;;;;9.82;6.65;;;13.60;99.90;;;;;;4989997;28;20472;-83
2021/10/25 12:57:14;;;;;;;10.43;7.17;;;13.50;99.90;;;;;;4990124;28;20376;-82
2021/10/25 12:59:39;;;;;;;11.32;7.05;;;13.50;99.90;;;;;;4989722;28;20376;-82
2021/10/25 13:02:09;;;;;;;7.90;6.45;;;13.50;99.90;;;;;;4988778;28;20737;-82
2021/10/25 13:04:35;;;;;;;11.07;6.57;;;13.60;99.90;;;;;;4989707;28;20392;-83
2021/10/25 13:07:14;;;;;;;11.50;7.40;;;13.70;99.90;;;;;;4984610;28;20400;-84
2021/10/25 13:09:50;;;;;;;9.95;6.70;;;13.70;99.90;;;;;;4979950;28;20505;-82
2021/10/25 13:12:17;;;;;;;10.38;7.28;;;13.70;99.90;;;;;;4983332;28;20395;-83
2021/10/25 13:14:43;;;;;;;10.05;7.82;;;13.70;99.90;;;;;;4981443;28;20421;-84
2021/10/25 13:17:09;;;;;;;10.57;7.40;;;13.70;99.90;;;;;;4977343;28;20389;-83
2021/10/25 13:19:35;;;;;;;9.23;7.90;;;13.70;99.90;;;;;;4982848;28;20395;-82
2021/10/25 13:22:00;;;;;;;11.80;8.32;;;13.60;99.90;;;;;;4978419;28;20437;-83
2021/10/25 13:24:32;;;;;;;14.57;9.33;;;13.40;99.90;;;;;;4980837;28;20439;-82
2021/10/25 13:26:57;;;;;;;34.63;12.02;;;13.40;99.90;;;;;;4979284;28;20389;-82
2021/10/25 13:29:26;;;;;;;16.80;8.73;;;13.50;99.90;;;;;;4980919;28;20393;-83
2021/10/25 13:31:52;;;;;;;11.15;7.43;;;13.50;99.90;;;;;;4983875;28;20919;-82
2021/10/25 13:34:20;;;;;;;11.55;7.90;;;13.60;99.90;;;;;;4981855;28;20441;-83
2021/10/25 13:36:46;;;;;;;12.55;7.57;;;13.60;99.90;;;;;;4987131;28;20779;-83
2021/10/25 13:39:13;;;;;;;13.15;9.05;;;13.60;99.90;;;;;;4981724;28;20388;-83
2021/10/25 13:41:40;;;;;;;10.43;7.85;;;13.40;99.90;;;;;;4984384;28;20451;-82
2021/10/25 13:44:06;;;;;;;13.13;7.60;;;13.30;99.90;;;;;;4982718;28;20507;-83
2021/10/25 13:46:32;;;;;;;15.98;8.25;;;13.20;99.90;;;;;;4979028;28;20470;-81
2021/10/25 13:48:59;;;;;;;28.15;10.23;;;13.20;99.90;;;;;;4981674;28;20495;-83
2021/10/25 13:51:25;;;;;;;13.15;8.13;;;13.30;99.90;;;;;;4981252;28;20439;-82
2021/10/25 13:53:50;;;;;;;11.18;8.05;;;13.30;99.90;;;;;;4980769;28;20408;-82
2021/10/25 13:56:18;;;;;;;8.80;7.57;;;13.20;99.90;;;;;;4980788;28;20419;-82
2021/10/25 13:58:45;;;;;;;12.02;8.60;;;13.30;99.90;;;;;;4974861;28;20446;-81
2021/10/25 14:01:11;;;;;;;12.70;7.85;;;13.20;99.90;;;;;;4984959;28;20405;-81
2021/10/25 14:03:39;;;;;;;10.38;7.78;;;13.20;99.90;;;;;;4979691;28;20437;-82
2021/10/25 14:06:08;;;;;;;11.43;7.63;;;13.10;99.90;;;;;;4978512;28;20492;-83
2021/10/25 14:08:34;;;;;;;12.10;7.93;;;13.10;99.90;;;;;;4980063;28;20917;-84
2021/10/25 14:11:00;;;;;;;10.73;8.17;;;13.10;99.90;;;;;;4980249;28;20428;-81
2021/10/25 14:13:29;;;;;;;10.27;8.10;;;13.10;99.90;;;;;;4981018;28;20408;-82
2021/10/25 14:16:11;;;;;;;12.55;8.35;;;13.10;99.90;;;;;;4983286;28;20444;-81
2021/10/25 14:18:38;;;;;;;13.10;8.98;;;13.00;99.90;;;;;;4982480;28;20884;-81
2021/10/25 14:21:04;;;;;;;13.00;8.83;;;12.80;99.90;;;;;;4987680;28;20452;-83
2021/10/25 14:23:31;;;;;;;11.23;8.32;;;12.70;99.90;;;;;;4983977;28;20884;-81
2021/10/25 14:25:56;;;;;;;10.40;7.72;;;12.80;99.90;;;;;;4988250;28;20449;-81
2021/10/25 14:28:22;;;;;;;12.88;8.75;;;12.70;99.90;;;;;;4983822;28;20555;-82
2021/10/25 14:30:48;;;;;;;12.90;9.18;;;12.70;99.90;;;;;;4988252;28;20458;-82
2021/10/25 14:33:14;;;;;;;10.80;8.75;;;12.50;99.90;;;;;;4984946;28;20747;-82